Time;durP1;ratioP1;P1;durP2;ratioP2;P2;SDS_P1;SDS_P2;PMS_P1;PMS_P2;Temp;Humidity;BMP_temperature;BMP_pressure;BME280_temperature;BME280_humidity;BME280_pressure;Samples;Min_cycle;Max_cycle;Signal;HPM_P1;HPM_P2
2021/04/08 00:00:06;;;;;;;;;13.00;10.00;;;;;;;;3538086;39;114015;-75
2021/04/08 00:02:32;;;;;;;;;10.67;10.67;;;;;;;;3539097;39;111968;-75
2021/04/08 00:04:59;;;;;;;;;12.33;10.00;;;;;;;;3539434;39;113480;-75
2021/04/08 00:07:25;;;;;;;;;9.67;8.67;;;;;;;;3538031;39;114075;-74
2021/04/08 00:09:51;;;;;;;;;10.33;8.67;;;;;;;;3539844;39;111785;-74
2021/04/08 00:12:17;;;;;;;;;13.00;12.33;;;;;;;;3538142;39;113304;-75
2021/04/08 00:14:43;;;;;;;;;12.67;9.67;;;;;;;;3539356;39;113888;-75
2021/04/08 00:17:09;;;;;;;;;14.33;13.67;;;;;;;;3541206;39;113493;-70
2021/04/08 00:19:35;;;;;;;;;13.00;11.33;;;;;;;;3539076;39;113901;-72
2021/04/08 00:22:02;;;;;;;;;13.00;13.00;;;;;;;;3539123;39;111784;-72
2021/04/08 00:24:28;;;;;;;;;11.67;8.67;;;;;;;;3538774;39;113263;-72
2021/04/08 00:26:54;;;;;;;;;11.33;11.00;;;;;;;;3539574;39;113917;-72
2021/04/08 00:29:20;;;;;;;;;11.00;8.33;;;;;;;;3534741;39;111865;-72
2021/04/08 00:31:46;;;;;;;;;11.67;11.67;;;;;;;;3539896;39;113471;-71
2021/04/08 00:34:13;;;;;;;;;8.00;8.00;;;;;;;;3537863;39;114297;-71
2021/04/08 00:36:39;;;;;;;;;9.00;8.00;;;;;;;;3539202;39;112221;-72
2021/04/08 00:39:06;;;;;;;;;11.00;9.00;;;;;;;;3540737;39;113657;-71
2021/04/08 00:41:32;;;;;;;;;9.75;8.50;;;;;;;;3539223;39;112139;-71
2021/04/08 00:43:58;;;;;;;;;11.00;9.00;;;;;;;;3539280;39;113268;-71
2021/04/08 00:46:25;;;;;;;;;12.00;12.00;;;;;;;;3538038;39;113829;-72
2021/04/08 00:48:51;;;;;;;;;11.50;8.50;;;;;;;;3539643;39;111892;-72
2021/04/08 00:51:17;;;;;;;;;13.25;11.75;;;;;;;;3538072;39;113328;-73
2021/04/08 00:53:43;;;;;;;;;8.25;8.25;;;;;;;;3535885;39;113030;-73
2021/04/08 00:56:10;;;;;;;;;12.00;12.00;;;;;;;;3538393;39;112236;-72
2021/04/08 00:58:36;;;;;;;;;10.50;10.50;;;;;;;;3539179;39;113217;-71
2021/04/08 01:01:02;;;;;;;;;10.75;10.75;;;;;;;;3541027;39;114668;-72
2021/04/08 01:03:28;;;;;;;;;13.50;11.00;;;;;;;;3538538;39;114110;-72
2021/04/08 01:05:54;;;;;;;;;13.00;11.00;;;;;;;;3538795;39;113902;-71
2021/04/08 01:08:21;;;;;;;;;11.00;10.00;;;;;;;;3537837;39;111821;-72
2021/04/08 01:10:47;;;;;;;;;5.75;4.50;;;;;;;;3539835;39;113436;-75
2021/04/08 01:13:15;;;;;;;;;9.00;9.00;;;;;;;;3537384;39;113904;-75
2021/04/08 01:15:42;;;;;;;;;5.50;3.00;;;;;;;;3539368;39;111883;-76
2021/04/08 01:18:13;;;;;;;;;4.00;4.00;;;;;;;;3537736;39;113344;-74
2021/04/08 01:20:50;;;;;;;;;3.50;3.00;;;;;;;;3449961;39;114019;-74
2021/04/08 01:23:30;;;;;;;;;3.00;3.00;;;;;;;;3389255;39;112440;-73
2021/04/08 01:26:09;;;;;;;;;5.50;4.00;;;;;;;;3485136;40;114270;-73
2021/04/08 01:28:37;;;;;;;;;6.75;4.00;;;;;;;;3489511;39;120522;-75
2021/04/08 01:31:05;;;;;;;;;11.00;4.00;;;;;;;;3500411;39;119338;-75
2021/04/08 01:33:32;;;;;;;;;6.50;6.50;;;;;;;;3513690;39;113989;-74
2021/04/08 01:36:01;;;;;;;;;8.50;4.00;;;;;;;;3509287;39;111914;-75
2021/04/08 01:38:29;;;;;;;;;9.75;6.25;;;;;;;;3512029;39;113263;-75
2021/04/08 01:40:56;;;;;;;;;4.00;4.00;;;;;;;;3528775;39;114294;-74
2021/04/08 01:43:24;;;;;;;;;6.00;4.00;;;;;;;;3527842;39;112395;-74
2021/04/08 01:45:51;;;;;;;;;3.25;3.25;;;;;;;;3531986;39;113258;-75
2021/04/08 01:48:18;;;;;;;;;7.00;6.00;;;;;;;;3520560;39;111858;-73
2021/04/08 01:50:45;;;;;;;;;4.00;4.00;;;;;;;;3530588;39;113439;-73
2021/04/08 01:53:14;;;;;;;;;3.75;3.75;;;;;;;;3528598;39;113430;-74
2021/04/08 01:55:42;;;;;;;;;4.00;3.00;;;;;;;;3530237;39;113864;-74
2021/04/08 01:58:08;;;;;;;;;9.50;5.50;;;;;;;;3529552;39;113407;-73
2021/04/08 02:00:35;;;;;;;;;6.00;3.75;;;;;;;;3529629;39;113833;-73
2021/04/08 02:03:01;;;;;;;;;7.25;4.00;;;;;;;;3522838;39;112450;-73
2021/04/08 02:05:29;;;;;;;;;5.00;4.00;;;;;;;;3531462;39;113695;-73
2021/04/08 02:07:56;;;;;;;;;6.25;4.00;;;;;;;;3530411;39;112903;-73
2021/04/08 02:10:23;;;;;;;;;6.25;6.00;;;;;;;;3529139;39;113401;-74
2021/04/08 02:12:51;;;;;;;;;7.00;4.50;;;;;;;;3530286;39;113604;-75
2021/04/08 02:15:18;;;;;;;;;8.00;6.00;;;;;;;;3526917;39;112272;-74
2021/04/08 02:17:45;;;;;;;;;6.00;6.00;;;;;;;;3530424;39;113320;-74
2021/04/08 02:20:13;;;;;;;;;8.25;6.25;;;;;;;;3529068;39;113784;-75
2021/04/08 02:22:42;;;;;;;;;9.75;6.25;;;;;;;;3530029;39;112003;-75
2021/04/08 02:25:09;;;;;;;;;8.00;6.75;;;;;;;;3529539;39;113286;-75
2021/04/08 02:27:36;;;;;;;;;8.00;7.00;;;;;;;;3531038;39;114117;-73
2021/04/08 02:30:03;;;;;;;;;3.50;3.25;;;;;;;;3530107;39;113528;-73
2021/04/08 02:32:29;;;;;;;;;7.50;7.00;;;;;;;;3528821;39;113870;-74
2021/04/08 02:34:56;;;;;;;;;8.00;7.00;;;;;;;;3530591;39;111931;-74
2021/04/08 02:37:22;;;;;;;;;6.00;6.00;;;;;;;;3528968;39;113289;-74
2021/04/08 02:39:49;;;;;;;;;4.00;4.00;;;;;;;;3529983;39;114206;-74
2021/04/08 02:42:15;;;;;;;;;7.00;6.00;;;;;;;;3529097;39;111916;-73
2021/04/08 02:44:41;;;;;;;;;9.00;6.25;;;;;;;;3529941;39;113313;-74
2021/04/08 02:47:07;;;;;;;;;7.00;6.25;;;;;;;;3529156;39;114009;-73
2021/04/08 02:49:33;;;;;;;;;6.00;6.00;;;;;;;;3532279;39;111857;-74
2021/04/08 02:52:02;;;;;;;;;9.00;6.00;;;;;;;;3529745;39;113911;-74
2021/04/08 02:54:33;;;;;;;;;13.00;10.00;;;;;;;;3528912;39;113136;-73
2021/04/08 02:57:01;;;;;;;;;9.25;7.75;;;;;;;;3530254;39;113169;-74
2021/04/08 02:59:27;;;;;;;;;12.50;10.00;;;;;;;;3526126;39;113046;-73
2021/04/08 03:01:58;;;;;;;;;11.50;11.00;;;;;;;;3530514;39;112066;-73
2021/04/08 03:04:24;;;;;;;;;11.00;10.25;;;;;;;;3528644;39;113295;-73
2021/04/08 03:06:51;;;;;;;;;13.25;10.50;;;;;;;;3529925;39;114268;-74
2021/04/08 03:09:19;;;;;;;;;11.00;11.00;;;;;;;;3528632;39;112326;-74
2021/04/08 03:11:48;;;;;;;;;11.00;11.00;;;;;;;;3532404;39;113699;-73
2021/04/08 03:14:16;;;;;;;;;10.25;10.25;;;;;;;;3526499;39;112205;-74
2021/04/08 03:16:43;;;;;;;;;14.25;11.50;;;;;;;;3529992;39;112772;-74
2021/04/08 03:19:11;;;;;;;;;10.50;9.00;;;;;;;;3523877;39;113501;-73
2021/04/08 03:21:38;;;;;;;;;10.00;10.00;;;;;;;;3527234;39;112179;-74
2021/04/08 03:24:04;;;;;;;;;8.75;7.50;;;;;;;;3529767;39;113317;-74
2021/04/08 03:26:31;;;;;;;;;14.00;10.25;;;;;;;;3528600;39;114036;-74
2021/04/08 03:28:57;;;;;;;;;11.50;11.00;;;;;;;;3530215;39;112242;-73
2021/04/08 03:31:24;;;;;;;;;12.00;10.00;;;;;;;;3528615;39;113072;-73
2021/04/08 03:33:51;;;;;;;;;8.00;8.00;;;;;;;;3528928;39;114029;-73
2021/04/08 03:36:17;;;;;;;;;10.00;10.00;;;;;;;;3530142;39;113948;-73
2021/04/08 03:38:44;;;;;;;;;9.00;7.25;;;;;;;;3523701;39;112956;-72
2021/04/08 03:41:10;;;;;;;;;10.25;10.25;;;;;;;;3529524;39;112567;-73
2021/04/08 03:43:37;;;;;;;;;14.50;11.50;;;;;;;;3529528;39;113784;-73
2021/04/08 03:46:03;;;;;;;;;9.75;9.75;;;;;;;;3528772;39;114091;-74
2021/04/08 03:48:33;;;;;;;;;9.50;7.00;;;;;;;;3527525;39;112188;-74
2021/04/08 03:50:59;;;;;;;;;13.75;13.25;;;;;;;;3528807;39;114092;-73
2021/04/08 03:53:26;;;;;;;;;12.50;10.00;;;;;;;;3529698;39;114068;-73
2021/04/08 03:55:53;;;;;;;;;10.50;9.75;;;;;;;;3531211;39;112092;-73
2021/04/08 03:58:19;;;;;;;;;10.00;8.00;;;;;;;;3529568;39;114189;-73
2021/04/08 04:00:46;;;;;;;;;10.25;10.00;;;;;;;;3528887;39;113359;-74
2021/04/08 04:03:13;;;;;;;;;11.25;9.50;;;;;;;;3529438;39;113333;-74
2021/04/08 04:05:41;;;;;;;;;7.00;7.00;;;;;;;;3528960;39;113936;-74
2021/04/08 04:08:08;;;;;;;;;11.00;8.25;;;;;;;;3528992;39;111890;-73
2021/04/08 04:10:35;;;;;;;;;13.50;10.00;;;;;;;;3524325;39;112819;-73
2021/04/08 04:13:02;;;;;;;;;10.25;8.50;;;;;;;;3528289;39;113920;-74
2021/04/08 04:15:28;;;;;;;;;11.00;11.00;;;;;;;;3532673;39;111935;-74
2021/04/08 04:17:54;;;;;;;;;15.00;10.50;;;;;;;;3528000;39;113577;-74
2021/04/08 04:20:20;;;;;;;;;11.00;11.00;;;;;;;;3530133;39;112279;-75
2021/04/08 04:22:47;;;;;;;;;11.00;11.00;;;;;;;;3528834;39;113823;-75
2021/04/08 04:25:14;;;;;;;;;15.00;11.00;;;;;;;;3528953;39;114147;-74
2021/04/08 04:27:40;;;;;;;;;10.00;10.00;;;;;;;;3524509;39;111914;-74
2021/04/08 04:30:06;;;;;;;;;13.25;11.00;;;;;;;;3528725;39;113629;-74
2021/04/08 04:32:33;;;;;;;;;10.50;7.50;;;;;;;;3529275;39;113859;-73
2021/04/08 04:34:59;;;;;;;;;11.00;9.00;;;;;;;;3528510;39;111846;-74
2021/04/08 04:37:25;;;;;;;;;11.75;8.50;;;;;;;;3532311;39;113358;-74
2021/04/08 04:39:51;;;;;;;;;10.50;10.00;;;;;;;;3528352;39;112036;-73
2021/04/08 04:42:17;;;;;;;;;12.00;10.50;;;;;;;;3529570;39;113486;-74
2021/04/08 04:44:44;;;;;;;;;10.00;10.00;;;;;;;;3528350;39;113906;-73
2021/04/08 04:47:10;;;;;;;;;14.75;13.00;;;;;;;;3529007;39;112331;-73
2021/04/08 04:49:36;;;;;;;;;15.75;11.50;;;;;;;;3529329;39;113908;-74
2021/04/08 04:52:02;;;;;;;;;9.50;9.50;;;;;;;;3528052;39;114134;-73
2021/04/08 04:54:28;;;;;;;;;10.25;8.50;;;;;;;;3521603;39;113421;-74
2021/04/08 04:56:55;;;;;;;;;13.00;10.50;;;;;;;;3526411;39;113253;-73
2021/04/08 04:59:21;;;;;;;;;16.25;8.75;;;;;;;;3531797;39;113800;-73
2021/04/08 05:01:47;;;;;;;;;10.50;10.50;;;;;;;;3528776;39;113285;-73
2021/04/08 05:04:14;;;;;;;;;10.75;9.50;;;;;;;;3528601;39;114190;-73
2021/04/08 05:06:40;;;;;;;;;10.75;10.75;;;;;;;;3529049;39;111953;-74
2021/04/08 05:09:06;;;;;;;;;12.00;10.00;;;;;;;;3528826;39;113208;-73
2021/04/08 05:11:33;;;;;;;;;11.00;10.00;;;;;;;;3529145;39;114215;-74
2021/04/08 05:13:59;;;;;;;;;18.50;15.75;;;;;;;;3528176;39;111929;-74
2021/04/08 05:16:26;;;;;;;;;13.50;11.50;;;;;;;;3529954;39;113216;-74
2021/04/08 05:18:52;;;;;;;;;13.50;12.50;;;;;;;;3527877;39;113846;-76
2021/04/08 05:21:18;;;;;;;;;19.00;13.75;;;;;;;;3532070;39;111984;-73
2021/04/08 05:23:44;;;;;;;;;20.00;11.50;;;;;;;;3528286;39;114309;-74
2021/04/08 05:26:10;;;;;;;;;12.00;12.00;;;;;;;;3528639;39;112494;-74
2021/04/08 05:28:36;;;;;;;;;15.50;12.75;;;;;;;;3529466;39;113918;-74
2021/04/08 05:31:04;;;;;;;;;13.25;11.50;;;;;;;;3527859;39;114023;-74
2021/04/08 05:33:30;;;;;;;;;15.00;13.25;;;;;;;;3529620;39;111904;-75
2021/04/08 05:35:56;;;;;;;;;15.00;14.00;;;;;;;;3528264;39;113072;-73
2021/04/08 05:38:22;;;;;;;;;18.50;14.00;;;;;;;;3528880;39;114218;-73
2021/04/08 05:40:48;;;;;;;;;14.00;11.25;;;;;;;;3528277;39;111917;-73
2021/04/08 05:43:15;;;;;;;;;14.50;14.00;;;;;;;;3530980;39;113267;-75
2021/04/08 05:45:41;;;;;;;;;14.00;13.00;;;;;;;;3528988;39;112199;-70
2021/04/08 05:48:08;;;;;;;;;14.00;14.00;;;;;;;;3528082;39;113341;-69
2021/04/08 05:50:34;;;;;;;;;14.00;13.50;;;;;;;;3528899;39;113926;-73
2021/04/08 05:53:00;;;;;;;;;13.75;13.75;;;;;;;;3526972;39;112231;-75
2021/04/08 05:55:26;;;;;;;;;13.50;13.50;;;;;;;;3528134;39;113444;-73
2021/04/08 05:57:52;;;;;;;;;18.00;13.00;;;;;;;;3527014;39;114165;-73
2021/04/08 06:00:19;;;;;;;;;18.00;12.75;;;;;;;;3528268;39;112498;-70
2021/04/08 06:02:45;;;;;;;;;15.00;15.00;;;;;;;;3527780;39;113299;-72
2021/04/08 06:05:12;;;;;;;;;15.25;13.00;;;;;;;;3529832;39;112709;-69
2021/04/08 06:07:39;;;;;;;;;19.00;16.75;;;;;;;;3528187;39;113292;-70
2021/04/08 06:10:05;;;;;;;;;17.50;14.00;;;;;;;;3527124;39;113945;-71
2021/04/08 06:12:31;;;;;;;;;17.00;16.00;;;;;;;;3529169;39;112198;-71
2021/04/08 06:14:58;;;;;;;;;16.75;15.50;;;;;;;;3527521;39;113473;-69
2021/04/08 06:17:24;;;;;;;;;16.00;14.00;;;;;;;;3527637;39;113908;-72
2021/04/08 06:19:50;;;;;;;;;17.00;14.00;;;;;;;;3527490;39;112662;-69
2021/04/08 06:22:17;;;;;;;;;16.50;16.50;;;;;;;;3528294;39;113527;-69
2021/04/08 06:24:43;;;;;;;;;17.00;16.00;;;;;;;;3530144;39;113891;-68
2021/04/08 06:27:09;;;;;;;;;16.25;14.00;;;;;;;;3527589;39;113763;-68
2021/04/08 06:29:35;;;;;;;;;17.00;14.00;;;;;;;;3528067;39;113792;-72
2021/04/08 06:32:01;;;;;;;;;17.25;16.75;;;;;;;;3527300;39;111978;-68
2021/04/08 06:34:28;;;;;;;;;14.00;14.00;;;;;;;;3529464;39;113249;-69
2021/04/08 06:36:54;;;;;;;;;18.75;16.75;;;;;;;;3527967;39;113920;-68
2021/04/08 06:39:21;;;;;;;;;20.00;19.75;;;;;;;;3530054;39;112033;-68
2021/04/08 06:41:47;;;;;;;;;20.00;17.50;;;;;;;;3529019;39;113570;-68
2021/04/08 06:44:15;;;;;;;;;26.00;26.00;;;;;;;;3528898;39;114716;-69
2021/04/08 06:46:42;;;;;;;;;18.50;17.50;;;;;;;;3531938;39;112460;-70
2021/04/08 06:49:12;;;;;;;;;23.00;22.25;;;;;;;;3528304;39;113921;-70
2021/04/08 06:51:42;;;;;;;;;25.50;21.00;;;;;;;;3529893;39;112087;-70
2021/04/08 06:54:09;;;;;;;;;20.00;20.00;;;;;;;;3528813;39;116292;-69
2021/04/08 06:56:36;;;;;;;;;23.75;23.75;;;;;;;;3529642;39;114132;-70
2021/04/08 06:59:03;;;;;;;;;19.50;19.50;;;;;;;;3528514;39;112149;-69
2021/04/08 07:01:30;;;;;;;;;20.75;20.25;;;;;;;;3530210;39;113257;-70
2021/04/08 07:03:56;;;;;;;;;17.75;17.25;;;;;;;;3522748;39;113413;-70
2021/04/08 07:06:22;;;;;;;;;21.00;21.00;;;;;;;;3529627;39;112266;-68
2021/04/08 07:08:49;;;;;;;;;21.00;19.25;;;;;;;;3531126;39;113271;-69
2021/04/08 07:11:15;;;;;;;;;25.25;21.50;;;;;;;;3529062;39;111711;-69
2021/04/08 07:13:42;;;;;;;;;18.75;17.50;;;;;;;;3529817;39;113396;-69
2021/04/08 07:16:09;;;;;;;;;20.00;19.50;;;;;;;;3528181;39;113768;-70
2021/04/08 07:18:35;;;;;;;;;23.00;18.00;;;;;;;;3529768;39;112108;-72
2021/04/08 07:21:01;;;;;;;;;19.25;17.50;;;;;;;;3524105;39;113120;-72
2021/04/08 07:23:27;;;;;;;;;24.50;23.00;;;;;;;;3529999;39;115034;-71
2021/04/08 07:26:00;;;;;;;;;21.50;20.25;;;;;;;;3529423;39;112148;-72
2021/04/08 07:28:30;;;;;;;;;18.25;17.25;;;;;;;;3530663;39;113278;-72
2021/04/08 07:30:57;;;;;;;;;19.00;18.25;;;;;;;;3531466;39;113935;-71
2021/04/08 07:33:23;;;;;;;;;17.75;16.25;;;;;;;;3530674;39;113232;-71
2021/04/08 07:35:49;;;;;;;;;18.00;15.00;;;;;;;;3529835;39;113915;-71
2021/04/08 07:38:15;;;;;;;;;19.25;18.25;;;;;;;;3529564;39;111846;-72
2021/04/08 07:40:55;;;;;;;;;22.50;18.00;;;;;;;;3529695;39;113366;-70
2021/04/08 07:43:21;;;;;;;;;21.50;21.25;;;;;;;;3529197;39;114097;-70
2021/04/08 07:45:47;;;;;;;;;31.50;26.25;;;;;;;;3528749;39;113074;-71
2021/04/08 07:48:14;;;;;;;;;20.75;15.75;;;;;;;;3528878;39;113471;-71
2021/04/08 07:50:56;;;;;;;;;21.75;21.75;;;;;;;;3529102;39;114132;-71
2021/04/08 07:53:22;;;;;;;;;18.00;18.00;;;;;;;;3532284;39;112625;-71
2021/04/08 07:55:51;;;;;;;;;26.00;21.50;;;;;;;;3528329;39;114217;-70
2021/04/08 07:58:17;;;;;;;;;23.00;22.00;;;;;;;;3529107;39;112225;-70
2021/04/08 08:00:44;;;;;;;;;27.25;21.00;;;;;;;;3529213;39;113237;-70
2021/04/08 08:03:10;;;;;;;;;22.00;20.25;;;;;;;;3528217;39;113991;-70
2021/04/08 08:05:39;;;;;;;;;24.25;20.50;;;;;;;;3529813;39;111938;-71
2021/04/08 08:08:09;;;;;;;;;26.50;26.00;;;;;;;;3528405;39;113372;-71
2021/04/08 08:10:38;;;;;;;;;20.75;20.00;;;;;;;;3529410;39;113989;-70
2021/04/08 08:13:04;;;;;;;;;20.75;20.75;;;;;;;;3530996;39;111878;-72
2021/04/08 08:15:31;;;;;;;;;22.67;19.67;;;;;;;;3529501;39;113838;-72
2021/04/08 08:17:57;;;;;;;;;22.00;18.33;;;;;;;;3528423;39;112415;-71
2021/04/08 08:20:24;;;;;;;;;24.33;22.00;;;;;;;;3524348;39;115154;-72
2021/04/08 08:22:52;;;;;;;;;23.00;19.67;;;;;;;;3528206;39;113813;-70
2021/04/08 08:25:23;;;;;;;;;20.00;19.67;;;;;;;;3528942;39;111829;-72
2021/04/08 08:27:50;;;;;;;;;20.25;18.00;;;;;;;;3528640;39;113850;-72
2021/04/08 08:30:17;;;;;;;;;23.00;19.00;;;;;;;;3528409;39;114021;-72
2021/04/08 08:33:14;;;;;;;;;20.75;19.75;;;;;;;;3528984;39;111792;-71
2021/04/08 08:35:40;;;;;;;;;18.75;18.75;;;;;;;;3507679;39;113391;-72
2021/04/08 08:38:20;;;;;;;;;20.75;20.75;;;;;;;;3529708;39;111935;-73
2021/04/08 08:40:48;;;;;;;;;25.00;21.00;;;;;;;;3527731;39;113592;-74
2021/04/08 08:43:16;;;;;;;;;23.50;22.25;;;;;;;;3528292;39;113726;-73
2021/04/08 08:45:42;;;;;;;;;22.00;20.50;;;;;;;;3528670;39;111903;-74
2021/04/08 08:48:10;;;;;;;;;22.75;22.25;;;;;;;;3529199;39;113056;-73
2021/04/08 08:50:37;;;;;;;;;20.25;18.75;;;;;;;;3527762;39;113860;-75
2021/04/08 08:53:04;;;;;;;;;24.50;22.25;;;;;;;;3529740;39;111908;-74
2021/04/08 08:55:31;;;;;;;;;21.00;21.00;;;;;;;;3527576;39;113152;-73
2021/04/08 08:57:58;;;;;;;;;24.25;22.00;;;;;;;;3531490;39;113980;-73
2021/04/08 09:00:25;;;;;;;;;35.50;30.50;;;;;;;;3528028;39;113229;-73
2021/04/08 09:02:52;;;;;;;;;22.75;21.00;;;;;;;;3528703;39;114593;-72
2021/04/08 09:05:20;;;;;;;;;26.25;23.25;;;;;;;;3528399;39;112198;-72
2021/04/08 09:07:47;;;;;;;;;49.75;39.50;;;;;;;;3528804;39;113653;-72
2021/04/08 09:10:14;;;;;;;;;29.50;27.50;;;;;;;;3528088;39;113816;-72
2021/04/08 09:12:41;;;;;;;;;22.25;21.25;;;;;;;;3528683;39;112093;-72
2021/04/08 09:15:09;;;;;;;;;27.25;22.75;;;;;;;;3529412;39;113386;-72
2021/04/08 09:17:39;;;;;;;;;2.00;2.00;;;;;;;;3527625;39;113849;-71
2021/04/08 09:20:06;;;;;;;;;19.50;19.50;;;;;;;;3532131;39;112302;-72
2021/04/08 09:22:32;;;;;;;;;24.50;23.00;;;;;;;;3527506;39;114208;-72
2021/04/08 09:24:59;;;;;;;;;25.00;22.75;;;;;;;;3529360;39;111848;-72
2021/04/08 09:27:25;;;;;;;;;20.00;19.00;;;;;;;;3527732;39;114230;-73
2021/04/08 09:29:54;;;;;;;;;23.00;20.75;;;;;;;;3528205;39;114877;-72
2021/04/08 09:32:31;;;;;;;;;28.00;23.25;;;;;;;;3527979;39;112122;-72
2021/04/08 09:35:17;;;;;;;;;20.50;20.50;;;;;;;;3529293;39;113323;-72
2021/04/08 09:37:58;;;;;;;;;25.00;23.00;;;;;;;;3526891;39;113943;-72
2021/04/08 09:40:44;;;;;;;;;26.25;25.00;;;;;;;;3521095;39;112106;-71
2021/04/08 09:43:10;;;;;;;;;21.75;21.75;;;;;;;;3528829;39;113727;-71
2021/04/08 09:45:42;;;;;;;;;23.50;22.75;;;;;;;;3529044;39;111952;-71
2021/04/08 09:48:09;;;;;;;;;23.50;23.25;;;;;;;;3527669;39;113357;-71
2021/04/08 09:50:43;;;;;;;;;21.25;20.00;;;;;;;;3528544;39;113879;-72
2021/04/08 09:53:09;;;;;;;;;23.75;23.00;;;;;;;;3527722;39;112036;-74
2021/04/08 09:55:35;;;;;;;;;22.00;22.00;;;;;;;;3529153;39;115110;-72
2021/04/08 09:58:02;;;;;;;;;21.75;21.00;;;;;;;;3526938;39;113883;-72
2021/04/08 10:00:28;;;;;;;;;24.25;21.50;;;;;;;;3528915;39;111883;-75
2021/04/08 10:02:58;;;;;;;;;29.25;26.25;;;;;;;;3527685;39;113252;-74
2021/04/08 10:05:29;;;;;;;;;25.25;25.25;;;;;;;;3530681;39;113820;-74
2021/04/08 10:07:56;;;;;;;;;28.50;26.50;;;;;;;;3527544;39;113327;-73
2021/04/08 10:10:25;;;;;;;;;21.00;20.00;;;;;;;;3528825;39;114193;-73
2021/04/08 10:12:51;;;;;;;;;26.50;24.25;;;;;;;;3529157;39;112249;-72
2021/04/08 10:15:18;;;;;;;;;18.00;17.50;;;;;;;;3529682;39;113283;-72
2021/04/08 10:17:44;;;;;;;;;20.50;19.00;;;;;;;;3529194;39;114867;-73
2021/04/08 10:20:11;;;;;;;;;22.25;22.25;;;;;;;;3528919;39;112301;-72
2021/04/08 10:22:41;;;;;;;;;16.50;14.00;;;;;;;;3530205;39;113640;-72
2021/04/08 10:25:08;;;;;;;;;19.75;19.75;;;;;;;;3530965;39;114122;-71
2021/04/08 10:27:34;;;;;;;;;18.75;16.50;;;;;;;;3530204;39;113380;-70
2021/04/08 10:30:00;;;;;;;;;11.00;11.00;;;;;;;;3528141;39;114196;-70
2021/04/08 10:32:30;;;;;;;;;12.00;11.00;;;;;;;;3529974;39;111854;-70
2021/04/08 10:34:56;;;;;;;;;8.00;7.00;;;;;;;;3528950;39;113249;-73
2021/04/08 10:37:22;;;;;;;;;16.00;15.75;;;;;;;;3529322;39;114204;-75
2021/04/08 10:39:49;;;;;;;;;8.00;5.25;;;;;;;;3529217;39;111995;-74
2021/04/08 10:42:16;;;;;;;;;15.25;13.25;;;;;;;;3529349;39;113376;-77
2021/04/08 10:44:42;;;;;;;;;6.00;5.00;;;;;;;;3529378;39;114186;-72
2021/04/08 10:47:10;;;;;;;;;11.50;10.75;;;;;;;;3531323;39;112089;-71
2021/04/08 10:49:37;;;;;;;;;11.00;11.00;;;;;;;;3529479;39;114132;-71
2021/04/08 10:52:03;;;;;;;;;12.25;11.00;;;;;;;;3528719;39;111756;-71
2021/04/08 10:54:31;;;;;;;;;7.75;6.25;;;;;;;;3526267;39;113300;-70
2021/04/08 10:56:58;;;;;;;;;8.50;8.50;;;;;;;;3529656;39;113963;-71
2021/04/08 10:59:25;;;;;;;;;8.25;7.75;;;;;;;;3528645;39;112715;-71
2021/04/08 11:01:52;;;;;;;;;3.25;1.50;;;;;;;;3529850;39;113269;-71
2021/04/08 11:04:18;;;;;;;;;5.50;4.25;;;;;;;;3528648;39;114117;-70
2021/04/08 11:06:45;;;;;;;;;5.00;5.00;;;;;;;;3529232;39;111938;-71
2021/04/08 11:09:11;;;;;;;;;9.00;8.50;;;;;;;;3531799;39;113616;-72
2021/04/08 11:11:37;;;;;;;;;8.75;8.25;;;;;;;;3528728;39;112264;-72
2021/04/08 11:14:04;;;;;;;;;6.00;6.00;;;;;;;;3530349;39;113656;-72
2021/04/08 11:16:31;;;;;;;;;8.50;8.25;;;;;;;;3525856;39;114395;-72
2021/04/08 11:19:00;;;;;;;;;7.00;6.25;;;;;;;;3530234;39;112990;-72
2021/04/08 11:21:27;;;;;;;;;9.00;7.00;;;;;;;;3528284;39;113632;-72
2021/04/08 11:23:54;;;;;;;;;7.50;5.00;;;;;;;;3529267;39;113798;-69
2021/04/08 11:26:20;;;;;;;;;1.00;1.00;;;;;;;;3528920;39;111979;-70
2021/04/08 11:28:52;;;;;;;;;6.25;4.50;;;;;;;;3529240;39;113597;-70
2021/04/08 11:31:20;;;;;;;;;3.00;3.00;;;;;;;;3531040;39;113938;-70
2021/04/08 11:33:53;;;;;;;;;4.00;4.00;;;;;;;;3529410;39;113249;-71
2021/04/08 11:36:19;;;;;;;;;4.50;3.00;;;;;;;;3528409;39;114441;-74
2021/04/08 11:38:46;;;;;;;;;3.50;3.50;;;;;;;;3529290;39;111825;-70
2021/04/08 11:41:12;;;;;;;;;5.50;5.50;;;;;;;;3529445;39;114630;-70
2021/04/08 11:43:48;;;;;;;;;9.25;6.00;;;;;;;;3523088;39;113229;-69
2021/04/08 11:46:32;;;;;;;;;8.00;5.75;;;;;;;;3529153;39;112612;-71
2021/04/08 11:49:00;;;;;;;;;10.25;6.25;;;;;;;;3530013;39;113282;-69
2021/04/08 11:51:26;;;;;;;;;5.25;5.25;;;;;;;;3527932;39;113991;-70
2021/04/08 11:53:53;;;;;;;;;4.00;4.00;;;;;;;;3532357;39;112827;-68
2021/04/08 11:56:26;;;;;;;;;5.00;5.00;;;;;;;;3528421;39;113930;-68
2021/04/08 11:58:52;;;;;;;;;5.00;4.75;;;;;;;;3529347;39;112132;-70
2021/04/08 12:01:19;;;;;;;;;3.25;3.25;;;;;;;;3529182;39;113210;-70
2021/04/08 12:03:46;;;;;;;;;5.00;5.00;;;;;;;;3528602;39;113890;-67
2021/04/08 12:06:14;;;;;;;;;3.25;3.25;;;;;;;;3529434;39;112582;-67
2021/04/08 12:08:41;;;;;;;;;6.75;5.00;;;;;;;;3528729;39;113339;-67
2021/04/08 12:11:07;;;;;;;;;4.25;4.25;;;;;;;;3529286;39;114991;-67
2021/04/08 12:13:35;;;;;;;;;7.00;7.00;;;;;;;;3524775;39;112400;-67
2021/04/08 12:16:01;;;;;;;;;6.50;4.75;;;;;;;;3528614;39;113472;-67
2021/04/08 12:18:28;;;;;;;;;6.25;4.00;;;;;;;;3529941;39;112774;-67
2021/04/08 12:20:55;;;;;;;;;8.00;7.25;;;;;;;;3523519;39;112255;-67
2021/04/08 12:23:22;;;;;;;;;8.75;7.00;;;;;;;;3528714;39;114104;-66
2021/04/08 12:25:50;;;;;;;;;9.25;5.50;;;;;;;;3523914;39;112058;-67
2021/04/08 12:28:16;;;;;;;;;4.00;4.00;;;;;;;;3523765;39;112307;-67
2021/04/08 12:31:00;;;;;;;;;5.00;5.00;;;;;;;;3528784;39;113852;-68
2021/04/08 12:33:27;;;;;;;;;5.50;5.00;;;;;;;;3523772;39;113099;-67
2021/04/08 12:35:54;;;;;;;;;7.00;5.00;;;;;;;;3530933;39;113377;-67
2021/04/08 12:38:20;;;;;;;;;4.25;4.00;;;;;;;;3529085;39;112064;-68
2021/04/08 12:40:47;;;;;;;;;4.00;4.00;;;;;;;;3529112;39;113974;-67
2021/04/08 12:43:13;;;;;;;;;8.50;7.25;;;;;;;;3528123;39;113892;-67
2021/04/08 12:45:39;;;;;;;;;3.75;2.50;;;;;;;;3529497;39;111923;-67
2021/04/08 12:48:06;;;;;;;;;3.50;3.50;;;;;;;;3528219;39;113325;-67
2021/04/08 12:50:32;;;;;;;;;5.00;3.00;;;;;;;;3529116;39;113922;-66
2021/04/08 12:52:58;;;;;;;;;4.00;3.00;;;;;;;;3528264;39;112315;-67
2021/04/08 12:55:26;;;;;;;;;4.00;3.25;;;;;;;;3529204;39;113897;-67
2021/04/08 12:57:54;;;;;;;;;2.75;2.75;;;;;;;;3530984;39;113910;-66
2021/04/08 13:00:20;;;;;;;;;4.25;3.00;;;;;;;;3528900;39;113438;-66
2021/04/08 13:02:46;;;;;;;;;5.25;3.50;;;;;;;;3528551;39;113808;-66
2021/04/08 13:05:13;;;;;;;;;2.25;2.00;;;;;;;;3528447;39;112566;-66
2021/04/08 13:07:39;;;;;;;;;3.25;3.00;;;;;;;;3529518;39;113178;-67
2021/04/08 13:10:06;;;;;;;;;4.00;4.00;;;;;;;;3527515;39;113619;-68
2021/04/08 13:12:32;;;;;;;;;4.00;2.25;;;;;;;;3527733;39;111865;-68
2021/04/08 13:14:59;;;;;;;;;2.00;2.00;;;;;;;;3528067;39;113219;-68
2021/04/08 13:17:25;;;;;;;;;3.00;3.00;;;;;;;;3528711;39;114109;-68
2021/04/08 13:19:51;;;;;;;;;5.25;3.00;;;;;;;;3531434;39;111979;-67
2021/04/08 13:22:18;;;;;;;;;3.00;3.00;;;;;;;;3528173;39;114426;-68
2021/04/08 13:24:44;;;;;;;;;4.00;2.00;;;;;;;;3529027;39;112161;-69
2021/04/08 13:27:10;;;;;;;;;4.00;2.25;;;;;;;;3528007;39;113376;-68
2021/04/08 13:29:36;;;;;;;;;3.25;2.25;;;;;;;;3529009;39;113840;-67
2021/04/08 13:32:04;;;;;;;;;2.50;2.00;;;;;;;;3527835;39;111970;-68
2021/04/08 13:34:30;;;;;;;;;1.25;1.25;;;;;;;;3525631;39;113432;-68
2021/04/08 13:36:56;;;;;;;;;4.00;2.00;;;;;;;;3528680;39;114591;-68
2021/04/08 13:39:22;;;;;;;;;2.00;2.00;;;;;;;;3528148;39;111759;-67
2021/04/08 13:41:48;;;;;;;;;1.25;1.00;;;;;;;;3530854;39;113406;-67
2021/04/08 13:44:14;;;;;;;;;2.00;2.00;;;;;;;;3529157;39;111859;-67
2021/04/08 13:46:40;;;;;;;;;2.00;2.00;;;;;;;;3529412;39;113353;-68
2021/04/08 13:49:07;;;;;;;;;3.00;1.00;;;;;;;;3525188;39;112807;-68
2021/04/08 13:51:34;;;;;;;;;3.50;3.50;;;;;;;;3528934;39;112176;-67
2021/04/08 13:54:00;;;;;;;;;3.25;1.75;;;;;;;;3530557;39;113247;-69
2021/04/08 13:56:28;;;;;;;;;2.75;1.25;;;;;;;;3528425;39;114040;-69
2021/04/08 13:58:54;;;;;;;;;2.50;1.50;;;;;;;;3530159;39;111817;-69
2021/04/08 14:01:20;;;;;;;;;3.75;0.00;;;;;;;;3529646;39;113396;-68
2021/04/08 14:03:46;;;;;;;;;3.00;2.75;;;;;;;;3531720;39;113926;-69
2021/04/08 14:06:13;;;;;;;;;8.75;3.25;;;;;;;;3529852;39;113270;-69
2021/04/08 14:08:39;;;;;;;;;4.00;2.50;;;;;;;;3526058;39;112846;-68
2021/04/08 14:11:05;;;;;;;;;5.25;2.00;;;;;;;;3530412;39;112062;-70
2021/04/08 14:13:31;;;;;;;;;2.00;2.00;;;;;;;;3526612;39;113540;-68
2021/04/08 14:15:57;;;;;;;;;2.00;1.00;;;;;;;;3529810;39;114697;-68